Terminal Aerodrome Forecast
Issued by NWS Wichita, KS

Current Version | Previous Version | Text Only | Print | Product List | Glossary On
Versions: 1 2 3 4 5 6 7 8 9 10 11 12 13
000
FTUS43 KICT 022334
TAFICT
TAF
KICT 022334Z 0300/0324 18008KT P6SM SCT250
     FM030200 17007KT P6SM SCT250
     FM031200 20006KT P6SM BKN250
     FM031800 20008KT P6SM SCT050=

USA.gov is the U.S. government's official web portal to all federal, state and local government web resources and services.